Time;durP1;ratioP1;P1;durP2;ratioP2;P2;SDS_P1;SDS_P2;PMS_P1;PMS_P2;Temp;Humidity;BMP_temperature;BMP_pressure;BME280_temperature;BME280_humidity;BME280_pressure;Samples;Min_cycle;Max_cycle;Signal;HPM_P1;HPM_P2
2023/09/08 00:00:36;;;;;;;8.00;7.30;;;21.00;76.50;;;;;;4974270;28;20459;-67
2023/09/08 00:03:04;;;;;;;8.00;7.20;;;21.00;76.90;;;;;;4971428;28;20508;-71
2023/09/08 00:05:33;;;;;;;9.03;8.20;;;21.00;76.80;;;;;;4980516;28;20520;-71
2023/09/08 00:08:01;;;;;;;8.13;7.43;;;21.00;76.70;;;;;;4972078;28;20462;-68
2023/09/08 00:10:29;;;;;;;8.80;8.00;;;21.00;76.60;;;;;;4973411;28;20492;-67
2023/09/08 00:12:59;;;;;;;8.40;7.50;;;21.10;76.70;;;;;;4971753;28;20547;-67
2023/09/08 00:15:27;;;;;;;8.37;7.60;;;21.10;76.70;;;;;;4972925;28;20478;-74
2023/09/08 00:17:56;;;;;;;8.53;7.83;;;21.10;76.60;;;;;;4974572;28;20472;-67
2023/09/08 00:20:25;;;;;;;7.33;6.70;;;21.10;76.50;;;;;;4971535;28;20462;-68
2023/09/08 00:22:53;;;;;;;7.43;6.70;;;21.10;76.40;;;;;;4973866;28;20471;-69
2023/09/08 00:25:21;;;;;;;8.10;6.13;;;21.10;76.20;;;;;;4973129;28;20845;-67
2023/09/08 00:27:49;;;;;;;7.63;6.93;;;21.20;76.00;;;;;;4972795;28;20458;-66
2023/09/08 00:30:19;;;;;;;7.80;7.07;;;21.10;76.10;;;;;;4971501;28;20513;-66
2023/09/08 00:32:47;;;;;;;8.83;7.93;;;21.00;75.90;;;;;;4972404;28;20485;-66
2023/09/08 00:35:16;;;;;;;8.13;7.43;;;20.90;76.30;;;;;;4975627;28;20468;-66
2023/09/08 00:37:44;;;;;;;8.23;7.57;;;20.90;76.20;;;;;;4969637;28;20461;-73
2023/09/08 00:40:12;;;;;;;7.43;6.73;;;20.90;76.30;;;;;;4972795;28;20516;-67
2023/09/08 00:42:40;;;;;;;7.33;6.83;;;20.90;76.10;;;;;;4974027;28;20465;-71
2023/09/08 00:45:09;;;;;;;7.60;6.90;;;20.90;75.90;;;;;;4972024;28;20546;-67
2023/09/08 00:47:39;;;;;;;7.70;7.00;;;20.80;76.00;;;;;;4975443;28;20458;-66
2023/09/08 00:50:08;;;;;;;7.13;6.43;;;20.70;75.70;;;;;;4974302;28;20959;-67
2023/09/08 00:52:37;;;;;;;7.10;6.60;;;20.60;76.30;;;;;;4976071;28;20481;-67
2023/09/08 00:55:06;;;;;;;8.33;7.63;;;20.60;76.60;;;;;;4971514;28;20565;-73
2023/09/08 00:57:34;;;;;;;7.63;6.53;;;20.60;76.40;;;;;;4972089;28;20491;-69
2023/09/08 01:00:05;;;;;;;7.70;7.00;;;20.60;76.20;;;;;;4974831;28;20904;-68
2023/09/08 01:02:33;;;;;;;9.93;7.00;;;20.70;76.20;;;;;;4970783;28;20466;-67
2023/09/08 01:05:03;;;;;;;8.20;7.30;;;20.80;75.30;;;;;;4970892;28;20462;-67
2023/09/08 01:07:33;;;;;;;7.77;7.10;;;20.70;75.40;;;;;;4974983;28;20484;-67
2023/09/08 01:10:04;;;;;;;7.30;6.60;;;20.70;75.20;;;;;;4973652;28;20462;-68
2023/09/08 01:12:33;;;;;;;7.50;6.77;;;20.70;75.00;;;;;;4975112;28;20568;-73
2023/09/08 01:15:01;;;;;;;8.60;7.80;;;20.70;75.10;;;;;;4972627;28;20472;-68
2023/09/08 01:17:29;;;;;;;7.50;6.80;;;20.60;75.20;;;;;;4976233;28;20875;-68
2023/09/08 01:20:06;;;;;;;8.17;6.93;;;20.70;75.10;;;;;;4989444;28;20473;-67
2023/09/08 01:31:58;;;;;;;8.20;7.50;;;20.50;76.30;;;;;;5177404;23;20696;-86
2023/09/08 01:34:27;;;;;;;8.87;7.97;;;20.50;76.40;;;;;;4968808;28;20477;-86
2023/09/08 01:36:56;;;;;;;8.30;7.60;;;20.40;76.70;;;;;;4944010;28;20462;-87
2023/09/08 01:39:25;;;;;;;8.33;7.63;;;20.40;76.70;;;;;;4958843;28;21015;-86
2023/09/08 01:41:53;;;;;;;7.93;7.23;;;20.40;76.80;;;;;;4949626;28;20498;-87
2023/09/08 01:44:21;;;;;;;7.97;7.20;;;20.40;76.70;;;;;;4955554;28;20488;-87
2023/09/08 01:46:52;;;;;;;7.77;7.03;;;20.50;76.40;;;;;;4966837;28;20508;-87
2023/09/08 01:49:22;;;;;;;7.57;6.87;;;20.40;76.50;;;;;;4961020;28;20966;-87
2023/09/08 01:51:51;;;;;;;7.20;6.50;;;20.40;76.50;;;;;;4954567;28;20496;-87
2023/09/08 01:54:19;;;;;;;8.60;7.90;;;20.30;76.60;;;;;;4954294;28;20547;-87
2023/09/08 01:56:48;;;;;;;7.87;7.20;;;20.20;76.80;;;;;;4954411;28;20466;-87
2023/09/08 01:59:16;;;;;;;10.70;8.77;;;20.30;76.80;;;;;;4946259;28;20473;-87
2023/09/08 02:01:44;;;;;;;8.73;7.93;;;20.30;76.30;;;;;;4953972;28;20488;-87
2023/09/08 02:04:13;;;;;;;9.20;8.07;;;20.20;76.30;;;;;;4954475;28;20470;-87
2023/09/08 02:06:43;;;;;;;7.53;6.80;;;20.00;76.40;;;;;;4972153;28;20535;-87
2023/09/08 02:09:15;;;;;;;7.90;7.10;;;19.60;77.50;;;;;;4944957;29;20485;-87
2023/09/08 02:11:43;;;;;;;7.70;7.00;;;19.30;78.10;;;;;;4948421;28;20488;-87
2023/09/08 02:14:11;;;;;;;8.33;7.53;;;19.20;78.50;;;;;;4955132;28;20465;-86
2023/09/08 02:16:39;;;;;;;8.50;7.80;;;19.20;79.00;;;;;;4952381;28;20979;-87
2023/09/08 02:19:08;;;;;;;7.87;7.17;;;19.20;79.00;;;;;;4963638;28;20452;-86
2023/09/08 02:21:36;;;;;;;7.57;6.87;;;19.30;79.10;;;;;;4947430;28;20449;-87
2023/09/08 02:24:06;;;;;;;8.20;7.40;;;19.40;78.60;;;;;;4954043;28;20995;-87
2023/09/08 02:26:36;;;;;;;7.33;6.73;;;19.50;78.20;;;;;;4940659;29;20481;-86
2023/09/08 02:29:04;;;;;;;8.00;7.20;;;19.60;77.90;;;;;;4942983;28;20497;-86
2023/09/08 02:31:33;;;;;;;7.83;6.73;;;19.60;77.80;;;;;;4969959;28;20483;-87
2023/09/08 02:34:04;;;;;;;7.60;6.90;;;19.60;77.70;;;;;;4954956;28;20455;-87
2023/09/08 02:36:33;;;;;;;7.70;7.00;;;19.70;77.40;;;;;;4948342;28;20982;-87
2023/09/08 02:39:01;;;;;;;8.67;7.77;;;19.70;77.40;;;;;;4938158;29;20464;-87
2023/09/08 02:41:31;;;;;;;7.90;7.10;;;19.70;77.20;;;;;;4946328;28;20465;-87
2023/09/08 02:43:59;;;;;;;7.70;6.57;;;19.70;77.20;;;;;;4955068;28;20497;-87
2023/09/08 02:46:27;;;;;;;7.10;6.50;;;19.70;77.20;;;;;;4958196;28;20949;-86
2023/09/08 02:48:55;;;;;;;7.40;6.70;;;19.70;77.40;;;;;;4959101;28;20504;-86
2023/09/08 02:51:24;;;;;;;7.90;7.10;;;19.80;77.10;;;;;;4958560;28;20469;-87
2023/09/08 02:53:52;;;;;;;7.43;6.50;;;19.80;77.20;;;;;;4944999;28;20536;-87
2023/09/08 02:56:20;;;;;;;6.03;5.43;;;19.90;77.20;;;;;;4959022;28;20469;-87
2023/09/08 02:58:50;;;;;;;8.53;7.67;;;19.90;76.80;;;;;;4975911;28;20447;-86
2023/09/08 03:01:20;;;;;;;8.17;7.50;;;19.90;76.50;;;;;;4974933;28;20515;-87
2023/09/08 03:03:50;;;;;;;7.60;6.97;;;19.90;76.60;;;;;;4959014;28;20456;-87
2023/09/08 03:06:21;;;;;;;9.63;8.33;;;19.80;76.30;;;;;;4958267;28;20472;-87
2023/09/08 03:08:50;;;;;;;8.10;7.40;;;19.80;76.10;;;;;;4958593;28;20467;-87
2023/09/08 03:11:18;;;;;;;7.30;6.60;;;19.50;76.40;;;;;;4975665;28;20456;-87
2023/09/08 03:13:47;;;;;;;6.87;6.27;;;19.30;77.20;;;;;;4958588;28;20499;-87
2023/09/08 03:16:17;;;;;;;9.50;7.40;;;19.30;77.40;;;;;;4975579;28;20534;-86
2023/09/08 03:18:45;;;;;;;7.47;6.77;;;19.30;77.20;;;;;;4938672;29;20546;-87
2023/09/08 03:21:15;;;;;;;8.37;7.67;;;19.30;77.10;;;;;;4966500;28;20835;-86
2023/09/08 03:23:45;;;;;;;7.70;7.00;;;19.30;77.20;;;;;;4958751;28;20814;-86
2023/09/08 03:26:13;;;;;;;8.00;7.40;;;19.30;76.90;;;;;;4947222;29;20460;-86
2023/09/08 03:28:43;;;;;;;7.63;6.97;;;19.40;77.10;;;;;;4939188;29;20444;-86
2023/09/08 03:31:12;;;;;;;7.63;6.90;;;19.40;77.00;;;;;;4962691;28;20984;-87
2023/09/08 03:33:43;;;;;;;7.97;7.27;;;19.40;77.20;;;;;;4967624;28;20569;-86
2023/09/08 03:36:12;;;;;;;8.87;8.07;;;19.40;76.70;;;;;;4954724;28;20474;-86
2023/09/08 03:38:41;;;;;;;8.77;7.27;;;19.40;77.20;;;;;;4957701;28;20475;-86
2023/09/08 03:41:09;;;;;;;7.90;7.20;;;19.40;76.90;;;;;;4968954;28;20483;-87
2023/09/08 03:43:37;;;;;;;8.87;8.07;;;19.40;76.70;;;;;;4956069;29;20440;-87
2023/09/08 03:46:05;;;;;;;8.40;7.60;;;19.20;77.90;;;;;;4938286;29;20462;-86
2023/09/08 03:48:34;;;;;;;9.20;8.40;;;19.00;78.40;;;;;;4938745;29;20452;-86
2023/09/08 03:51:03;;;;;;;8.13;7.33;;;19.00;78.40;;;;;;4938186;29;20476;-86
2023/09/08 03:53:32;;;;;;;8.70;8.00;;;19.00;78.60;;;;;;4963356;28;20467;-87
2023/09/08 03:56:01;;;;;;;8.80;8.00;;;18.90;78.60;;;;;;4937438;29;20975;-87
2023/09/08 03:58:29;;;;;;;8.87;8.07;;;18.80;78.70;;;;;;4938506;29;20456;-87
2023/09/08 04:00:58;;;;;;;7.20;6.60;;;18.90;78.70;;;;;;4972790;28;20459;-86
2023/09/08 04:03:26;;;;;;;7.23;6.70;;;19.00;78.50;;;;;;4956914;28;20970;-87
2023/09/08 04:05:55;;;;;;;7.77;7.17;;;19.00;78.30;;;;;;4957417;28;20530;-87
2023/09/08 04:08:25;;;;;;;7.50;6.70;;;19.10;78.10;;;;;;4957068;28;20467;-87
2023/09/08 04:10:53;;;;;;;10.50;6.80;;;19.20;77.80;;;;;;4957131;28;20459;-87
2023/09/08 04:13:22;;;;;;;7.23;6.53;;;19.20;77.70;;;;;;4956998;28;20494;-86
2023/09/08 04:15:52;;;;;;;8.30;7.50;;;19.30;77.50;;;;;;4974593;28;20443;-87
2023/09/08 04:18:20;;;;;;;7.83;7.10;;;19.40;77.00;;;;;;4950132;28;20466;-87
2023/09/08 04:20:49;;;;;;;7.93;7.23;;;19.40;76.90;;;;;;4956904;28;20546;-87
2023/09/08 04:23:17;;;;;;;8.40;7.10;;;19.40;76.60;;;;;;4957011;28;20534;-86
2023/09/08 04:25:47;;;;;;;8.73;7.77;;;19.40;76.60;;;;;;4953468;29;20470;-87
2023/09/08 04:28:15;;;;;;;7.43;6.83;;;19.50;76.50;;;;;;4923512;29;20523;-86
2023/09/08 04:30:44;;;;;;;7.63;6.83;;;19.50;76.20;;;;;;4941709;28;20530;-87
2023/09/08 04:33:13;;;;;;;7.67;7.00;;;19.50;76.00;;;;;;4955764;28;20984;-86
2023/09/08 04:35:41;;;;;;;8.13;7.33;;;19.50;75.90;;;;;;4974457;28;20944;-87
2023/09/08 04:38:09;;;;;;;8.60;7.20;;;19.40;75.90;;;;;;4954588;28;20521;-87
2023/09/08 04:40:41;;;;;;;7.40;6.80;;;19.40;76.00;;;;;;4969777;28;20459;-87
2023/09/08 04:43:12;;;;;;;7.20;6.47;;;19.40;75.80;;;;;;4952349;28;20960;-88
2023/09/08 04:45:40;;;;;;;6.87;6.27;;;19.40;75.50;;;;;;4953716;28;20873;-87
2023/09/08 04:48:11;;;;;;;6.63;6.03;;;19.30;75.70;;;;;;4953698;28;20475;-87
2023/09/08 04:50:40;;;;;;;7.00;6.40;;;19.20;76.20;;;;;;4956825;28;21032;-87
2023/09/08 04:53:09;;;;;;;11.00;6.93;;;19.10;76.60;;;;;;4956457;28;20466;-87
2023/09/08 04:55:37;;;;;;;7.67;7.07;;;19.00;76.90;;;;;;4954765;28;20471;-86
2023/09/08 04:58:06;;;;;;;7.10;6.40;;;18.80;77.10;;;;;;4937539;29;21041;-87
2023/09/08 05:00:35;;;;;;;8.57;7.77;;;18.60;78.00;;;;;;4945034;28;20826;-86
2023/09/08 05:03:04;;;;;;;9.90;7.20;;;18.30;78.50;;;;;;4972847;28;20466;-86
2023/09/08 05:05:32;;;;;;;8.37;7.60;;;18.20;79.60;;;;;;4973286;28;20462;-87
2023/09/08 05:08:01;;;;;;;8.00;7.20;;;18.00;80.10;;;;;;4973169;28;20455;-87
2023/09/08 05:10:30;;;;;;;8.87;7.13;;;18.00;80.60;;;;;;4942133;28;20458;-87
2023/09/08 05:12:58;;;;;;;8.47;7.70;;;18.00;80.50;;;;;;4954480;29;20468;-87
2023/09/08 05:15:27;;;;;;;7.97;7.27;;;18.10;80.60;;;;;;4939957;28;20846;-86
2023/09/08 05:17:57;;;;;;;8.13;7.43;;;18.20;80.30;;;;;;4953731;28;20470;-86
2023/09/08 05:20:27;;;;;;;8.17;7.40;;;18.30;79.80;;;;;;4937529;28;20475;-86
2023/09/08 05:22:55;;;;;;;7.80;7.07;;;18.50;79.50;;;;;;4959158;28;20455;-87
2023/09/08 05:25:24;;;;;;;7.53;6.90;;;18.60;79.10;;;;;;4942591;28;20455;-87
2023/09/08 05:27:52;;;;;;;7.47;6.87;;;18.70;79.00;;;;;;4950546;28;20466;-87
2023/09/08 05:30:21;;;;;;;6.73;6.13;;;18.80;79.10;;;;;;4947086;28;20577;-87
2023/09/08 05:32:49;;;;;;;8.00;7.30;;;18.90;79.50;;;;;;4961728;28;20460;-86
2023/09/08 05:35:19;;;;;;;7.83;5.93;;;18.80;78.90;;;;;;4961356;28;20571;-86
2023/09/08 05:37:49;;;;;;;6.70;5.47;;;18.80;79.90;;;;;;4948136;28;20620;-87
2023/09/08 05:40:18;;;;;;;6.47;5.87;;;19.00;79.60;;;;;;4946882;28;20878;-87
2023/09/08 05:42:46;;;;;;;6.43;5.93;;;19.20;79.40;;;;;;4961872;28;20467;-87
2023/09/08 05:45:15;;;;;;;8.33;5.20;;;19.20;79.30;;;;;;4962793;28;20471;-87
2023/09/08 05:47:43;;;;;;;7.57;6.80;;;19.20;79.70;;;;;;4942192;28;20564;-87
2023/09/08 05:50:12;;;;;;;9.10;7.10;;;19.20;79.30;;;;;;4959477;28;20492;-87
2023/09/08 05:52:42;;;;;;;6.97;6.47;;;19.20;79.90;;;;;;4949521;28;20475;-87
2023/09/08 05:55:10;;;;;;;5.93;5.30;;;19.20;80.10;;;;;;4944839;28;20478;-87
2023/09/08 05:57:39;;;;;;;6.90;6.20;;;19.20;80.10;;;;;;4943953;28;20556;-85
2023/09/08 06:00:08;;;;;;;8.03;6.30;;;19.30;80.40;;;;;;4949299;28;20567;-86
2023/09/08 06:02:43;;;;;;;7.87;7.07;;;19.50;80.10;;;;;;4963811;28;20452;-86
2023/09/08 06:05:14;;;;;;;6.97;6.37;;;19.50;79.60;;;;;;4943184;28;20465;-86
2023/09/08 06:07:44;;;;;;;7.97;7.27;;;19.50;79.80;;;;;;4963497;28;20469;-86
2023/09/08 06:10:30;;;;;;;7.47;6.80;;;19.60;80.20;;;;;;4947006;28;20577;-86
2023/09/08 06:12:59;;;;;;;6.30;5.80;;;19.60;80.00;;;;;;4947277;28;20475;-86
2023/09/08 06:15:28;;;;;;;7.10;6.33;;;19.80;79.80;;;;;;4945985;28;20587;-86
2023/09/08 06:17:56;;;;;;;6.70;6.10;;;20.00;79.50;;;;;;4944186;28;20469;-87
2023/09/08 06:20:26;;;;;;;7.33;6.57;;;20.10;79.10;;;;;;4946140;28;20460;-87
2023/09/08 06:22:56;;;;;;;6.93;6.23;;;20.20;79.00;;;;;;4953948;28;20467;-86
2023/09/08 06:25:25;;;;;;;8.70;7.90;;;20.20;79.10;;;;;;4943849;28;20540;-86
2023/09/08 06:27:53;;;;;;;7.57;6.97;;;20.30;79.10;;;;;;4964821;28;20453;-86
2023/09/08 06:30:21;;;;;;;9.73;8.83;;;20.20;79.10;;;;;;4964426;28;20968;-86
2023/09/08 06:32:50;;;;;;;13.97;8.20;;;20.20;79.40;;;;;;4947129;28;20485;-86
2023/09/08 06:35:18;;;;;;;9.60;8.70;;;20.20;79.50;;;;;;4962976;28;20482;-86
2023/09/08 06:37:46;;;;;;;8.50;7.80;;;20.30;79.40;;;;;;4964757;28;20454;-87
2023/09/08 06:40:16;;;;;;;9.13;7.70;;;20.40;79.20;;;;;;4943536;28;20476;-87
2023/09/08 06:42:44;;;;;;;8.43;7.67;;;20.50;78.90;;;;;;4931148;28;20472;-87
2023/09/08 06:45:29;;;;;;;7.67;6.97;;;20.60;78.80;;;;;;4945637;28;20469;-87
2023/09/08 06:47:59;;;;;;;8.27;7.47;;;20.90;78.50;;;;;;4949358;28;20476;-88
2023/09/08 06:50:30;;;;;;;7.77;6.97;;;21.10;77.90;;;;;;4945884;28;20841;-87
2023/09/08 06:52:59;;;;;;;7.87;6.57;;;21.40;77.20;;;;;;4969526;28;20461;-87
2023/09/08 06:55:28;;;;;;;8.60;7.70;;;21.60;77.10;;;;;;4969049;28;20513;-87
2023/09/08 06:57:58;;;;;;;11.70;7.50;;;21.70;76.70;;;;;;4950495;28;20458;-87
2023/09/08 07:00:26;;;;;;;7.43;6.73;;;21.80;76.30;;;;;;4964739;28;21014;-87
2023/09/08 07:02:54;;;;;;;7.47;5.80;;;22.00;75.80;;;;;;4948266;28;20450;-87
2023/09/08 07:05:23;;;;;;;7.87;7.17;;;22.20;75.70;;;;;;4949508;28;20470;-86
2023/09/08 07:07:51;;;;;;;6.00;5.43;;;22.50;75.10;;;;;;4947024;28;20819;-87
2023/09/08 07:10:21;;;;;;;10.53;5.83;;;22.70;74.50;;;;;;4950240;28;20557;-87
2023/09/08 07:12:51;;;;;;;8.00;7.20;;;22.80;74.30;;;;;;4963165;28;20473;-87
2023/09/08 07:15:20;;;;;;;9.37;8.43;;;22.80;73.80;;;;;;4938219;28;20835;-87
2023/09/08 07:17:48;;;;;;;7.83;7.10;;;22.90;73.70;;;;;;4943420;28;20980;-88
2023/09/08 07:20:17;;;;;;;7.87;7.20;;;23.00;73.50;;;;;;4942302;28;20474;-83
2023/09/08 07:22:46;;;;;;;7.63;6.83;;;22.90;74.00;;;;;;4950619;28;20481;-83
2023/09/08 07:25:15;;;;;;;11.80;8.20;;;23.00;74.10;;;;;;4951513;28;20451;-82
2023/09/08 07:27:44;;;;;;;7.03;6.33;;;23.10;74.00;;;;;;4947854;28;20490;-84
2023/09/08 07:30:14;;;;;;;7.13;6.53;;;23.10;74.30;;;;;;4949994;28;20932;-83
2023/09/08 07:32:44;;;;;;;9.20;8.40;;;23.20;73.40;;;;;;4970820;28;20477;-83
2023/09/08 07:35:14;;;;;;;8.17;7.50;;;23.30;73.50;;;;;;4949687;28;20506;-83
2023/09/08 07:37:44;;;;;;;9.87;8.77;;;23.20;73.10;;;;;;4955863;28;20550;-84
2023/09/08 07:40:13;;;;;;;15.33;8.17;;;23.20;73.30;;;;;;4948356;28;20470;-84
2023/09/08 07:42:42;;;;;;;8.20;7.50;;;23.20;72.80;;;;;;4965226;28;20467;-84
2023/09/08 07:45:11;;;;;;;10.00;7.33;;;23.20;72.80;;;;;;4947633;28;20467;-84
2023/09/08 07:47:40;;;;;;;7.67;7.07;;;23.20;73.20;;;;;;4964015;28;20627;-83
2023/09/08 07:50:21;;;;;;;6.00;5.50;;;23.30;73.30;;;;;;4965016;28;20458;-83
2023/09/08 07:52:50;;;;;;;9.17;6.73;;;23.40;73.60;;;;;;4959380;28;20474;-84
2023/09/08 07:55:19;;;;;;;8.47;7.77;;;23.50;73.00;;;;;;4963535;28;20475;-84
2023/09/08 07:57:47;;;;;;;6.63;6.03;;;23.60;72.40;;;;;;4963619;28;20460;-85
2023/09/08 08:00:17;;;;;;;8.83;8.03;;;23.60;72.40;;;;;;4965617;28;20472;-84
2023/09/08 08:02:49;;;;;;;9.50;5.60;;;23.70;72.70;;;;;;4944841;28;20986;-85
2023/09/08 08:05:18;;;;;;;8.93;6.57;;;23.80;73.00;;;;;;4969804;28;20554;-85
2023/09/08 08:07:46;;;;;;;10.03;9.10;;;23.80;72.20;;;;;;4969784;28;20468;-84
2023/09/08 08:10:15;;;;;;;7.53;6.93;;;23.90;72.90;;;;;;4971147;28;20460;-85
2023/09/08 08:12:43;;;;;;;8.50;6.70;;;23.80;71.70;;;;;;4965009;28;20563;-83
2023/09/08 08:15:12;;;;;;;8.50;7.70;;;23.90;73.40;;;;;;4972945;28;20470;-83
2023/09/08 08:17:41;;;;;;;12.83;7.80;;;24.00;72.20;;;;;;4967783;28;20464;-83
2023/09/08 08:20:17;;;;;;;5.40;5.00;;;23.90;72.00;;;;;;4972309;28;20492;-82
2023/09/08 08:22:46;;;;;;;6.03;5.40;;;23.90;73.80;;;;;;4953356;28;20499;-84
2023/09/08 08:25:15;;;;;;;8.20;7.40;;;24.10;74.20;;;;;;4967207;28;20824;-83
2023/09/08 08:27:44;;;;;;;9.70;8.90;;;24.10;71.90;;;;;;4971043;28;20483;-83
2023/09/08 08:30:13;;;;;;;6.43;5.70;;;24.00;71.20;;;;;;4969674;28;20464;-83
2023/09/08 08:32:41;;;;;;;7.40;6.50;;;23.90;72.00;;;;;;4952528;28;20510;-85
2023/09/08 08:35:11;;;;;;;6.50;5.90;;;23.90;72.40;;;;;;4971131;28;20453;-84
2023/09/08 08:37:42;;;;;;;9.50;8.73;;;24.10;73.70;;;;;;4952848;28;20539;-84
2023/09/08 08:40:12;;;;;;;6.20;5.60;;;24.20;72.50;;;;;;4966803;28;20463;-84
2023/09/08 08:42:41;;;;;;;6.70;5.90;;;24.40;72.70;;;;;;4964045;28;20527;-84
2023/09/08 08:45:11;;;;;;;5.53;5.13;;;24.50;72.70;;;;;;4972033;28;20470;-84
2023/09/08 08:47:40;;;;;;;8.17;7.47;;;24.60;72.60;;;;;;4971570;28;20442;-84
2023/09/08 08:50:12;;;;;;;9.20;8.40;;;24.80;70.60;;;;;;4955315;28;20535;-84
2023/09/08 08:52:40;;;;;;;7.20;6.50;;;24.70;69.50;;;;;;4963415;28;20459;-83
2023/09/08 08:55:09;;;;;;;6.30;5.80;;;24.70;71.60;;;;;;4970118;28;20457;-83
2023/09/08 08:57:38;;;;;;;6.80;6.20;;;24.80;71.70;;;;;;4971980;28;20460;-83
2023/09/08 09:00:10;;;;;;;8.53;6.77;;;24.90;71.40;;;;;;4953894;28;20468;-83
2023/09/08 09:02:40;;;;;;;8.50;7.80;;;25.00;71.20;;;;;;4965933;28;20480;-84
2023/09/08 09:05:13;;;;;;;7.43;6.83;;;25.10;69.90;;;;;;4970388;28;20466;-83
2023/09/08 09:07:42;;;;;;;7.20;6.50;;;25.10;70.60;;;;;;4968797;28;20495;-84
2023/09/08 09:10:11;;;;;;;7.50;6.80;;;25.10;70.30;;;;;;4951221;28;20517;-85
2023/09/08 09:12:40;;;;;;;8.27;7.47;;;25.10;69.30;;;;;;4965197;28;20460;-84
2023/09/08 09:15:09;;;;;;;8.47;7.70;;;25.10;69.30;;;;;;4970301;28;20452;-85
2023/09/08 09:17:38;;;;;;;6.63;6.03;;;25.10;69.50;;;;;;4969064;28;20493;-84
2023/09/08 09:20:20;;;;;;;6.93;6.23;;;25.10;70.40;;;;;;4969168;28;20477;-86
2023/09/08 09:22:49;;;;;;;8.37;7.60;;;25.20;70.40;;;;;;4968002;28;20491;-85
2023/09/08 09:25:25;;;;;;;9.90;8.13;;;25.30;70.30;;;;;;4967161;28;20532;-84
2023/09/08 09:27:55;;;;;;;9.70;8.67;;;25.30;68.50;;;;;;4970874;28;20456;-87
2023/09/08 09:30:25;;;;;;;7.53;6.93;;;25.30;69.20;;;;;;4970007;28;20458;-84
2023/09/08 09:33:05;;;;;;;7.87;7.17;;;25.20;70.40;;;;;;4968392;28;20510;-84
2023/09/08 09:35:43;;;;;;;7.13;6.53;;;25.30;69.60;;;;;;4968793;28;20540;-83
2023/09/08 09:38:12;;;;;;;6.60;6.13;;;25.20;69.50;;;;;;4951790;28;20456;-84
2023/09/08 09:40:43;;;;;;;8.00;7.30;;;25.20;69.20;;;;;;4952216;28;20877;-83
2023/09/08 09:43:13;;;;;;;7.33;6.73;;;25.20;69.10;;;;;;4946452;28;20465;-83
2023/09/08 09:45:43;;;;;;;7.93;7.13;;;25.30;69.50;;;;;;4953579;28;20460;-84
2023/09/08 09:48:13;;;;;;;7.93;7.23;;;25.30;69.50;;;;;;4953118;28;21039;-90
2023/09/08 09:50:44;;;;;;;7.47;6.87;;;25.30;68.60;;;;;;4951530;28;20473;-85
2023/09/08 09:53:13;;;;;;;11.93;7.97;;;25.30;68.90;;;;;;4948314;28;21038;-85
2023/09/08 09:55:45;;;;;;;7.73;7.03;;;25.40;69.00;;;;;;4971015;28;20453;-84
2023/09/08 09:58:15;;;;;;;8.57;7.67;;;25.40;69.30;;;;;;4970447;28;20461;-84
2023/09/08 10:00:47;;;;;;;7.73;7.00;;;25.40;68.40;;;;;;4949066;28;20857;-84
2023/09/08 10:03:19;;;;;;;13.13;7.60;;;25.40;68.50;;;;;;4968935;28;20465;-85
2023/09/08 10:06:02;;;;;;;8.00;6.53;;;25.50;67.80;;;;;;4950270;28;20497;-84
2023/09/08 10:08:36;;;;;;;6.60;5.90;;;25.50;69.20;;;;;;4965723;28;20462;-85
2023/09/08 10:11:08;;;;;;;5.57;5.17;;;25.50;69.30;;;;;;4970171;28;20541;-85
2023/09/08 10:13:43;;;;;;;5.83;5.43;;;25.60;68.70;;;;;;4962216;28;20485;-85
2023/09/08 10:16:16;;;;;;;6.93;6.43;;;25.70;69.20;;;;;;4962214;28;20484;-85
2023/09/08 10:18:46;;;;;;;5.73;5.33;;;25.70;68.90;;;;;;4968533;28;20446;-86
2023/09/08 10:21:19;;;;;;;5.67;5.27;;;25.80;69.00;;;;;;4966653;28;20502;-85
2023/09/08 10:24:08;;;;;;;6.97;6.47;;;25.80;69.00;;;;;;4965599;28;20458;-85
2023/09/08 10:26:43;;;;;;;7.00;6.40;;;25.90;66.50;;;;;;4967459;28;20469;-85
2023/09/08 10:29:13;;;;;;;7.30;6.73;;;25.90;65.30;;;;;;4970639;28;21018;-85
2023/09/08 10:31:43;;;;;;;6.83;6.20;;;25.90;65.50;;;;;;4965581;28;20537;-85
2023/09/08 10:34:12;;;;;;;6.23;5.63;;;25.90;66.60;;;;;;4967869;28;21128;-85
2023/09/08 10:36:41;;;;;;;5.47;5.07;;;25.90;66.50;;;;;;4967983;28;20486;-85
2023/09/08 10:39:30;;;;;;;5.70;5.13;;;26.00;67.10;;;;;;4970009;28;20485;-83
2023/09/08 10:42:25;;;;;;;6.77;6.27;;;26.00;67.40;;;;;;4968455;28;20960;-84
2023/09/08 10:45:04;;;;;;;5.83;5.43;;;26.00;67.30;;;;;;4967219;28;20463;-85
2023/09/08 10:47:36;;;;;;;6.13;5.63;;;26.10;67.40;;;;;;4953543;28;20848;-85
2023/09/08 10:50:08;;;;;;;6.30;5.80;;;26.10;67.60;;;;;;4968199;28;20492;-84
2023/09/08 10:52:40;;;;;;;6.97;6.40;;;26.10;67.70;;;;;;4951474;28;20538;-85
2023/09/08 10:55:09;;;;;;;7.47;6.80;;;26.20;67.50;;;;;;4967804;28;20535;-84
2023/09/08 10:57:38;;;;;;;6.60;6.00;;;26.20;67.40;;;;;;4966197;28;20521;-85
2023/09/08 11:00:11;;;;;;;6.10;5.60;;;26.30;67.50;;;;;;4970726;28;21178;-85
2023/09/08 11:02:41;;;;;;;7.03;6.00;;;26.40;67.40;;;;;;4969236;28;20465;-85
2023/09/08 11:05:13;;;;;;;6.57;6.07;;;26.60;67.20;;;;;;4969591;28;20461;-85
2023/09/08 11:07:45;;;;;;;6.33;5.87;;;26.70;66.80;;;;;;4971208;28;20469;-85
2023/09/08 11:10:14;;;;;;;7.23;6.63;;;26.90;66.40;;;;;;4967896;28;20449;-86
2023/09/08 11:12:43;;;;;;;6.47;5.87;;;27.20;65.90;;;;;;4970363;28;20444;-86
2023/09/08 11:15:11;;;;;;;6.33;5.67;;;27.40;65.50;;;;;;4973376;28;20461;-86
2023/09/08 11:17:41;;;;;;;7.17;6.67;;;27.70;64.90;;;;;;4969301;28;20519;-85
2023/09/08 11:20:12;;;;;;;6.97;6.40;;;27.80;64.50;;;;;;4949088;28;20462;-86
2023/09/08 11:22:40;;;;;;;6.37;5.97;;;28.00;64.20;;;;;;4968841;28;20475;-86
2023/09/08 11:25:11;;;;;;;8.27;6.60;;;28.10;64.00;;;;;;4969648;28;20460;-85
2023/09/08 11:27:40;;;;;;;6.33;5.83;;;28.30;63.70;;;;;;4968812;28;20472;-84
2023/09/08 11:30:09;;;;;;;6.67;6.07;;;28.40;63.30;;;;;;4969656;28;20484;-83
2023/09/08 11:32:38;;;;;;;7.83;7.23;;;28.50;63.30;;;;;;4970288;28;21006;-84
2023/09/08 11:35:08;;;;;;;7.40;6.80;;;28.50;63.30;;;;;;4968487;28;20486;-83
2023/09/08 11:37:38;;;;;;;6.83;6.27;;;28.50;63.30;;;;;;4970282;28;20494;-82
2023/09/08 11:40:11;;;;;;;6.87;6.37;;;28.50;63.30;;;;;;4971788;28;20456;-84
2023/09/08 11:42:43;;;;;;;6.47;6.00;;;28.60;63.30;;;;;;4966343;28;20458;-84
2023/09/08 11:45:13;;;;;;;6.50;6.00;;;28.60;63.20;;;;;;4967928;28;20982;-83
2023/09/08 11:47:43;;;;;;;7.17;6.40;;;28.70;62.90;;;;;;4973265;28;20551;-82
2023/09/08 11:50:15;;;;;;;8.80;8.20;;;28.90;62.90;;;;;;4973029;28;20458;-82
2023/09/08 11:52:45;;;;;;;7.60;7.10;;;28.90;62.60;;;;;;4967713;28;20482;-83
2023/09/08 11:55:13;;;;;;;7.53;6.93;;;28.90;62.50;;;;;;4955748;28;20840;-82
2023/09/08 11:57:45;;;;;;;7.10;6.60;;;29.00;62.20;;;;;;4972327;28;20472;-84
2023/09/08 12:00:17;;;;;;;7.53;6.90;;;29.10;62.10;;;;;;4973885;28;20485;-83
2023/09/08 12:02:46;;;;;;;6.90;6.40;;;29.10;61.90;;;;;;4972993;28;20472;-83
2023/09/08 12:05:14;;;;;;;7.47;7.07;;;29.10;62.00;;;;;;4969565;28;20524;-85
2023/09/08 12:07:43;;;;;;;7.63;7.03;;;29.10;61.90;;;;;;4968625;28;20473;-85
2023/09/08 12:10:12;;;;;;;7.20;6.70;;;29.20;61.70;;;;;;4974001;28;20509;-85
2023/09/08 12:12:47;;;;;;;6.97;6.47;;;29.30;61.70;;;;;;4968030;28;20472;-85
2023/09/08 12:15:33;;;;;;;7.83;7.23;;;29.30;61.80;;;;;;4968872;28;20478;-84
2023/09/08 12:18:03;;;;;;;7.00;6.50;;;29.20;61.90;;;;;;4966046;28;20576;-84
2023/09/08 12:20:32;;;;;;;8.03;7.43;;;29.20;61.80;;;;;;4966727;28;20957;-85
2023/09/08 12:23:02;;;;;;;6.87;6.30;;;29.20;62.00;;;;;;4969668;28;20463;-85
2023/09/08 12:25:32;;;;;;;7.03;6.50;;;29.20;61.90;;;;;;4970550;28;20828;-84
2023/09/08 12:28:03;;;;;;;7.37;6.87;;;29.20;62.10;;;;;;4972290;28;20970;-84
2023/09/08 12:30:33;;;;;;;7.17;6.70;;;29.10;62.30;;;;;;4973420;28;20452;-85
2023/09/08 12:33:02;;;;;;;9.13;8.10;;;29.10;62.30;;;;;;4969969;28;20462;-82
2023/09/08 12:35:31;;;;;;;7.33;6.80;;;29.10;62.40;;;;;;4969619;28;20449;-86
2023/09/08 12:38:01;;;;;;;7.03;6.53;;;29.20;62.30;;;;;;4952103;28;20481;-85
2023/09/08 12:40:31;;;;;;;8.10;7.47;;;29.20;62.20;;;;;;4967298;28;20472;-84
2023/09/08 12:42:59;;;;;;;6.77;6.27;;;29.20;62.30;;;;;;4967697;28;20459;-83
2023/09/08 12:45:49;;;;;;;7.67;7.07;;;29.30;62.30;;;;;;4967892;28;20611;-86
2023/09/08 12:48:17;;;;;;;7.40;6.80;;;29.20;62.40;;;;;;4953837;28;20469;-85
2023/09/08 12:50:45;;;;;;;6.70;6.30;;;29.20;62.60;;;;;;4972616;28;20450;-84
2023/09/08 12:53:13;;;;;;;7.70;6.93;;;29.30;62.40;;;;;;4969508;28;20462;-88
2023/09/08 12:55:42;;;;;;;8.17;7.43;;;29.40;62.40;;;;;;4971697;28;20960;-84
2023/09/08 12:58:10;;;;;;;7.30;6.70;;;29.30;62.40;;;;;;4970636;28;20489;-85
2023/09/08 13:00:38;;;;;;;7.97;7.37;;;29.20;62.40;;;;;;4965471;28;20472;-85
2023/09/08 13:03:08;;;;;;;7.20;6.70;;;29.10;62.70;;;;;;4965036;28;20468;-85
2023/09/08 13:05:38;;;;;;;7.33;6.77;;;29.10;62.90;;;;;;4958618;28;20513;-87
2023/09/08 13:08:07;;;;;;;6.90;6.30;;;29.00;63.10;;;;;;4965056;28;20491;-84